Time,TemperatureF,DewpointF,PressureIn,WindDirection,WindDirectionDegrees,WindSpeedMPH,WindSpeedGustMPH,Humidity,HourlyPrecipIn,Conditions,Clouds,dailyrainin,SoftwareType,DateUTC
2013-04-13 00:04:00,39.4,30.8,29.18,West,269,4.0,6.3,71,0.00,,---,0.00,VWS V13.01,2013-04-13 04:04:00,
2013-04-13 00:19:00,38.5,31.3,29.18,WNW,293,3.6,5.8,75,0.00,,---,0.00,VWS V13.01,2013-04-13 04:19:00,
2013-04-13 00:24:00,38.7,31.8,29.18,WNW,293,6.3,7.6,76,0.00,,---,0.00,VWS V13.01,2013-04-13 04:24:00,
2013-04-13 00:29:00,38.5,31.9,29.18,West,261,0.0,8.7,77,0.00,,---,0.00,VWS V13.01,2013-04-13 04:29:00,
2013-04-13 00:34:00,38.5,31.9,29.18,WSW,253,3.1,8.3,77,0.00,,---,0.00,VWS V13.01,2013-04-13 04:34:00,
2013-04-13 00:39:00,38.7,32.4,29.18,West,264,2.7,4.9,78,0.04,,---,0.04,VWS V13.01,2013-04-13 04:39:00,
2013-04-13 00:44:00,38.5,31.9,29.18,West,276,5.4,6.7,77,0.04,,---,0.04,VWS V13.01,2013-04-13 04:44:00,
2013-04-13 00:49:00,38.3,31.4,29.18,West,266,11.0,11.0,76,0.04,,---,0.04,VWS V13.01,2013-04-13 04:49:00,
2013-04-13 00:54:00,38.3,31.7,29.18,West,272,5.8,11.0,77,0.04,,---,0.04,VWS V13.01,2013-04-13 04:54:00,
2013-04-13 00:59:00,38.3,32.0,29.18,WNW,298,5.4,10.5,78,0.04,,---,0.04,VWS V13.01,2013-04-13 04:59:00,
2013-04-13 01:04:00,38.5,32.2,29.18,West,262,9.2,9.6,78,0.04,,---,0.04,VWS V13.01,2013-04-13 05:04:00,
2013-04-13 01:09:00,38.3,32.0,29.18,SSW,211,2.2,10.5,78,0.04,,---,0.04,VWS V13.01,2013-04-13 05:09:00,
2013-04-13 01:14:00,38.5,32.2,29.18,West,278,2.7,8.3,78,0.04,,---,0.04,VWS V13.01,2013-04-13 05:14:00,
2013-04-13 01:19:00,38.1,31.6,29.15,West,279,2.7,9.6,77,0.04,,---,0.04,VWS V13.01,2013-04-13 05:19:00,
2013-04-13 01:24:00,38.3,31.7,29.15,NW,307,4.5,7.2,77,0.04,,---,0.04,VWS V13.01,2013-04-13 05:24:00,
2013-04-13 01:29:00,38.3,31.7,29.15,WSW,237,7.6,7.6,77,0.04,,---,0.04,VWS V13.01,2013-04-13 05:29:00,
2013-04-13 01:34:00,38.5,31.9,29.15,NNW,335,3.6,8.3,77,0.04,,---,0.04,VWS V13.01,2013-04-13 05:34:00,
2013-04-13 01:39:00,38.3,30.4,29.15,West,279,4.0,10.5,73,0.04,,---,0.04,VWS V13.01,2013-04-13 05:39:00,
2013-04-13 01:44:00,38.7,31.1,29.15,West,270,4.0,5.4,74,0.00,,---,0.04,VWS V13.01,2013-04-13 05:44:00,
2013-04-13 01:49:00,38.3,30.8,29.18,WNW,291,6.7,7.2,74,0.00,,---,0.04,VWS V13.01,2013-04-13 05:49:00,
2013-04-13 01:54:00,38.3,31.1,29.18,WSW,238,5.8,8.7,75,0.00,,---,0.04,VWS V13.01,2013-04-13 05:54:00,
2013-04-13 01:59:00,38.3,31.1,29.18,WNW,292,3.6,8.7,75,0.00,,---,0.04,VWS V13.01,2013-04-13 05:59:00,
2013-04-13 02:04:00,38.1,30.9,29.15,WSW,255,3.6,7.2,75,0.00,,---,0.04,VWS V13.01,2013-04-13 06:04:00,
2013-04-13 02:09:00,38.5,31.6,29.15,SSW,206,4.0,8.3,76,0.00,,---,0.04,VWS V13.01,2013-04-13 06:09:00,
2013-04-13 02:14:00,38.1,30.9,29.15,SSW,192,3.6,10.5,75,0.00,,---,0.04,VWS V13.01,2013-04-13 06:14:00,
2013-04-13 02:24:00,38.3,30.4,29.18,SSE,162,2.7,6.3,73,0.00,,---,0.04,VWS V13.01,2013-04-13 06:24:00,
2013-04-13 02:29:00,38.3,30.4,29.18,South,185,2.7,4.0,73,0.00,,---,0.04,VWS V13.01,2013-04-13 06:29:00,
2013-04-13 02:34:00,38.3,30.4,29.18,SSW,205,4.9,10.1,73,0.00,,---,0.04,VWS V13.01,2013-04-13 06:34:00,
2013-04-13 02:39:00,38.1,29.9,29.18,SSW,209,2.7,8.7,72,0.00,,---,0.04,VWS V13.01,2013-04-13 06:39:00,
2013-04-13 02:49:00,38.3,30.4,29.18,SSE,154,2.2,8.1,73,0.00,,---,0.04,VWS V13.01,2013-04-13 06:49:00,
2013-04-13 02:59:00,37.9,28.7,29.18,WSW,252,3.6,10.1,69,0.00,,---,0.04,VWS V13.01,2013-04-13 06:59:00,
2013-04-13 03:04:00,38.1,29.2,29.18,WNW,299,5.8,8.1,70,0.00,,---,0.04,VWS V13.01,2013-04-13 07:04:00,
2013-04-13 03:09:00,38.1,28.5,29.18,West,272,5.4,7.6,68,0.00,,---,0.04,VWS V13.01,2013-04-13 07:09:00,
2013-04-13 03:14:00,38.1,28.5,29.18,NW,326,2.7,10.5,68,0.00,,---,0.04,VWS V13.01,2013-04-13 07:14:00,
2013-04-13 03:24:00,38.1,28.5,29.18,West,266,5.4,8.7,68,0.00,,---,0.04,VWS V13.01,2013-04-13 07:24:00,
2013-04-13 03:29:00,38.1,28.1,29.18,SW,223,2.2,6.3,67,0.00,,---,0.04,VWS V13.01,2013-04-13 07:29:00,
2013-04-13 03:34:00,38.3,28.7,29.18,SSW,207,3.1,5.4,68,0.00,,---,0.04,VWS V13.01,2013-04-13 07:34:00,
2013-04-13 03:39:00,38.5,28.9,29.18,West,267,6.3,7.2,68,0.00,,---,0.04,VWS V13.01,2013-04-13 07:39:00,
2013-04-13 03:44:00,38.1,28.1,29.18,WNW,294,2.7,8.3,67,0.00,,---,0.04,VWS V13.01,2013-04-13 07:44:00,
2013-04-13 03:59:00,38.3,27.6,29.18,West,260,2.7,8.1,65,0.00,,---,0.04,VWS V13.01,2013-04-13 07:59:00,
2013-04-13 04:09:00,38.3,28.3,29.21,SSW,198,2.2,4.9,67,0.00,,---,0.04,VWS V13.01,2013-04-13 08:09:00,
2013-04-13 04:14:00,38.5,28.5,29.21,SSW,208,4.9,5.4,67,0.04,,---,0.08,VWS V13.01,2013-04-13 08:14:00,
2013-04-13 04:19:00,38.5,28.1,29.21,SSW,199,0.0,4.9,66,0.04,,---,0.08,VWS V13.01,2013-04-13 08:19:00,
2013-04-13 04:29:00,38.1,27.8,29.21,West,263,0.0,3.1,66,0.04,,---,0.08,VWS V13.01,2013-04-13 08:29:00,
2013-04-13 04:39:00,38.1,27.4,29.21,SSW,209,2.2,8.7,65,0.04,,---,0.08,VWS V13.01,2013-04-13 08:39:00,
2013-04-13 04:49:00,38.1,27.8,29.21,SSW,201,0.0,5.8,66,0.04,,---,0.08,VWS V13.01,2013-04-13 08:49:00,
2013-04-13 04:54:00,38.3,27.6,29.21,WNW,283,0.0,5.8,65,0.04,,---,0.08,VWS V13.01,2013-04-13 08:54:00,
2013-04-13 04:59:00,38.3,26.4,29.21,WSW,252,0.0,5.8,62,0.04,,---,0.08,VWS V13.01,2013-04-13 08:59:00,
2013-04-13 05:09:00,38.5,26.2,29.21,SW,215,2.2,4.9,61,0.04,,---,0.08,VWS V13.01,2013-04-13 09:09:00,
2013-04-13 05:19:00,38.5,26.2,29.21,South,191,0.0,3.6,61,0.00,,---,0.08,VWS V13.01,2013-04-13 09:19:00,
2013-04-13 05:24:00,38.5,26.2,29.21,NW,311,4.9,4.9,61,0.00,,---,0.08,VWS V13.01,2013-04-13 09:24:00,
2013-04-13 05:29:00,38.3,26.4,29.21,West,272,4.0,5.8,62,0.00,,---,0.08,VWS V13.01,2013-04-13 09:29:00,
2013-04-13 05:34:00,38.1,26.6,29.21,West,272,3.6,4.0,63,0.00,,---,0.08,VWS V13.01,2013-04-13 09:34:00,
2013-04-13 05:39:00,37.9,26.9,29.21,WSW,247,2.2,4.9,64,0.00,,---,0.08,VWS V13.01,2013-04-13 09:39:00,
2013-04-13 05:44:00,37.9,26.9,29.21,SSW,198,3.6,3.6,64,0.00,,---,0.08,VWS V13.01,2013-04-13 09:44:00,
2013-04-13 05:49:00,37.9,27.2,29.21,SSW,210,2.2,5.4,65,0.00,,---,0.08,VWS V13.01,2013-04-13 09:49:00,
2013-04-13 05:59:00,37.8,27.8,29.21,West,278,0.0,4.0,67,0.00,,---,0.08,VWS V13.01,2013-04-13 09:59:00,
2013-04-13 06:09:00,37.6,28.4,29.21,SW,221,0.0,2.7,69,0.00,,---,0.08,VWS V13.01,2013-04-13 10:09:00,
2013-04-13 06:19:00,37.8,28.9,29.18,WSW,239,2.7,5.4,70,0.00,,---,0.08,VWS V13.01,2013-04-13 10:19:00,
2013-04-13 06:24:00,37.9,29.0,29.18,SW,234,0.0,4.9,70,0.00,,---,0.08,VWS V13.01,2013-04-13 10:24:00,
2013-04-13 06:39:00,37.9,29.0,29.21,WSW,247,2.2,5.4,70,0.00,,---,0.08,VWS V13.01,2013-04-13 10:39:00,
2013-04-13 06:44:00,38.1,28.9,29.21,West,259,0.0,3.6,69,0.00,,---,0.08,VWS V13.01,2013-04-13 10:44:00,
2013-04-13 06:49:00,38.1,28.5,29.21,WSW,257,0.0,5.4,68,0.00,,---,0.08,VWS V13.01,2013-04-13 10:49:00,
2013-04-13 06:54:00,38.3,29.0,29.21,WSW,258,0.0,2.2,69,0.00,,---,0.08,VWS V13.01,2013-04-13 10:54:00,
2013-04-13 06:59:00,38.5,29.2,29.21,West,259,0.0,3.1,69,0.00,,---,0.08,VWS V13.01,2013-04-13 10:59:00,
2013-04-13 07:04:00,38.5,28.9,29.21,WSW,246,0.0,2.2,68,0.00,,---,0.08,VWS V13.01,2013-04-13 11:04:00,
2013-04-13 07:14:00,38.8,28.5,29.21,SSW,201,0.0,4.0,66,0.00,,---,0.08,VWS V13.01,2013-04-13 11:14:00,
2013-04-13 07:19:00,39.0,27.1,29.23,SSW,204,0.0,3.6,62,0.00,,---,0.08,VWS V13.01,2013-04-13 11:19:00,
2013-04-13 07:24:00,39.4,27.1,29.23,SSW,205,2.2,2.7,61,0.00,,---,0.08,VWS V13.01,2013-04-13 11:24:00,
2013-04-13 07:34:00,39.7,25.3,29.23,SSW,193,2.2,4.0,56,0.00,,---,0.08,VWS V13.01,2013-04-13 11:34:00,
2013-04-13 07:39:00,39.7,23.6,29.23,SSW,205,2.7,5.4,52,0.00,,---,0.08,VWS V13.01,2013-04-13 11:39:00,
2013-04-13 07:44:00,40.1,24.4,29.23,SSW,201,3.1,3.6,53,0.00,,---,0.08,VWS V13.01,2013-04-13 11:44:00,
2013-04-13 07:49:00,40.1,23.0,29.23,SSW,211,0.0,5.8,50,0.00,,---,0.08,VWS V13.01,2013-04-13 11:49:00,
2013-04-13 07:54:00,40.3,23.1,29.23,West,270,3.1,5.8,50,0.00,,---,0.08,VWS V13.01,2013-04-13 11:54:00,
2013-04-13 08:04:00,40.5,22.8,29.23,SSW,211,0.0,4.0,49,0.00,,---,0.08,VWS V13.01,2013-04-13 12:04:00,
2013-04-13 08:09:00,40.8,23.6,29.23,SW,227,0.0,5.4,50,0.00,,---,0.08,VWS V13.01,2013-04-13 12:09:00,
2013-04-13 08:19:00,41.0,23.3,29.23,WSW,239,2.2,5.8,49,0.00,,---,0.08,VWS V13.01,2013-04-13 12:19:00,
2013-04-13 08:24:00,41.2,23.5,29.23,WNW,287,6.7,6.7,49,0.00,,---,0.08,VWS V13.01,2013-04-13 12:24:00,
2013-04-13 08:29:00,41.0,22.3,29.23,WSW,244,2.2,6.7,47,0.00,,---,0.08,VWS V13.01,2013-04-13 12:29:00,
2013-04-13 08:34:00,41.0,22.3,29.23,West,264,2.7,5.4,47,0.00,,---,0.08,VWS V13.01,2013-04-13 12:34:00,
2013-04-13 08:39:00,41.7,23.5,29.23,West,264,0.0,3.1,48,0.00,,---,0.08,VWS V13.01,2013-04-13 12:39:00,
2013-04-13 08:44:00,42.6,23.3,29.23,South,181,2.2,2.2,46,0.00,,---,0.08,VWS V13.01,2013-04-13 12:44:00,
2013-04-13 08:49:00,44.2,23.7,29.23,South,186,0.0,3.6,44,0.00,,---,0.08,VWS V13.01,2013-04-13 12:49:00,
2013-04-13 08:54:00,43.3,20.6,29.23,West,270,0.0,3.1,40,0.00,,---,0.08,VWS V13.01,2013-04-13 12:54:00,
2013-04-13 08:59:00,44.2,22.6,29.23,West,265,4.5,6.3,42,0.00,,---,0.08,VWS V13.01,2013-04-13 12:59:00,
2013-04-13 09:04:00,45.3,23.0,29.23,SW,230,0.0,5.4,41,0.00,,---,0.08,VWS V13.01,2013-04-13 13:04:00,
2013-04-13 09:09:00,44.1,21.3,29.23,NNW,333,2.7,6.3,40,0.00,,---,0.08,VWS V13.01,2013-04-13 13:09:00,
2013-04-13 09:14:00,45.0,22.7,29.23,North,350,0.0,3.6,41,0.00,,---,0.08,VWS V13.01,2013-04-13 13:14:00,
2013-04-13 09:19:00,44.6,21.8,29.23,South,189,5.8,6.7,40,0.00,,---,0.08,VWS V13.01,2013-04-13 13:19:00,
2013-04-13 09:24:00,45.9,22.9,29.23,West,273,0.0,5.8,40,0.00,,---,0.08,VWS V13.01,2013-04-13 13:24:00,
2013-04-13 09:29:00,45.9,22.3,29.23,SSW,198,4.0,4.0,39,0.00,,---,0.08,VWS V13.01,2013-04-13 13:29:00,
2013-04-13 09:34:00,45.9,21.7,29.26,NW,308,0.0,4.0,38,0.00,,---,0.08,VWS V13.01,2013-04-13 13:34:00,
2013-04-13 09:39:00,46.4,22.8,29.26,SW,236,0.0,3.1,39,0.00,,---,0.08,VWS V13.01,2013-04-13 13:39:00,
2013-04-13 09:44:00,46.8,23.1,29.26,SW,220,0.0,2.7,39,0.00,,---,0.08,VWS V13.01,2013-04-13 13:44:00,
2013-04-13 09:54:00,46.2,22.0,29.26,WNW,290,3.6,5.4,38,0.00,,---,0.08,VWS V13.01,2013-04-13 13:54:00,
2013-04-13 10:04:00,46.9,22.0,29.26,WSW,247,0.0,4.0,37,0.00,,---,0.08,VWS V13.01,2013-04-13 14:04:00,
2013-04-13 10:09:00,47.3,22.4,29.26,South,186,0.0,2.7,37,0.00,,---,0.08,VWS V13.01,2013-04-13 14:09:00,
2013-04-13 10:14:00,47.7,23.3,29.26,SSW,198,0.0,5.4,38,0.00,,---,0.08,VWS V13.01,2013-04-13 14:14:00,
2013-04-13 10:19:00,48.0,22.4,29.26,South,178,0.0,4.0,36,0.00,,---,0.08,VWS V13.01,2013-04-13 14:19:00,
2013-04-13 10:24:00,48.4,22.7,29.26,SSE,164,4.0,6.3,36,0.00,,---,0.08,VWS V13.01,2013-04-13 14:24:00,
2013-04-13 10:29:00,48.7,21.6,29.26,South,185,0.0,4.0,34,0.00,,---,0.08,VWS V13.01,2013-04-13 14:29:00,
2013-04-13 10:39:00,49.1,22.6,29.26,South,181,4.0,5.4,35,0.00,,---,0.08,VWS V13.01,2013-04-13 14:39:00,
2013-04-13 10:49:00,49.1,19.8,29.26,SSW,208,0.0,8.7,31,0.00,,---,0.08,VWS V13.01,2013-04-13 14:49:00,
2013-04-13 10:59:00,49.8,19.6,29.26,SSE,156,5.8,9.6,30,0.00,,---,0.08,VWS V13.01,2013-04-13 14:59:00,
2013-04-13 11:04:00,50.2,19.2,29.26,SE,145,2.7,7.6,29,0.00,,---,0.08,VWS V13.01,2013-04-13 15:04:00,
2013-04-13 11:09:00,50.2,19.2,29.26,SSE,165,3.1,8.1,29,0.00,,---,0.08,VWS V13.01,2013-04-13 15:09:00,
2013-04-13 11:19:00,50.9,19.8,29.26,SSW,192,4.0,5.8,29,0.00,,---,0.08,VWS V13.01,2013-04-13 15:19:00,
2013-04-13 11:24:00,50.9,19.0,29.26,South,186,5.4,8.7,28,0.00,,---,0.08,VWS V13.01,2013-04-13 15:24:00,
2013-04-13 11:29:00,51.1,19.1,29.26,South,189,5.4,7.2,28,0.00,,---,0.08,VWS V13.01,2013-04-13 15:29:00,
2013-04-13 11:34:00,51.3,18.4,29.26,South,182,2.2,5.8,27,0.00,,---,0.08,VWS V13.01,2013-04-13 15:34:00,
2013-04-13 11:39:00,51.6,19.6,29.26,SE,136,3.6,7.6,28,0.00,,---,0.08,VWS V13.01,2013-04-13 15:39:00,
2013-04-13 11:49:00,51.1,18.3,29.26,NW,326,3.1,8.1,27,0.00,,---,0.08,VWS V13.01,2013-04-13 15:49:00,
2013-04-13 11:54:00,51.4,18.6,29.26,South,179,5.8,8.1,27,0.00,,---,0.08,VWS V13.01,2013-04-13 15:54:00,
2013-04-13 11:59:00,52.2,18.3,29.26,SW,221,8.3,8.7,26,0.00,,---,0.08,VWS V13.01,2013-04-13 15:59:00,
2013-04-13 12:04:00,52.3,18.5,29.26,SSE,164,2.2,8.3,26,0.00,,---,0.08,VWS V13.01,2013-04-13 16:04:00,
2013-04-13 12:09:00,50.7,17.1,29.26,WSW,248,2.7,8.7,26,0.00,,---,0.08,VWS V13.01,2013-04-13 16:09:00,
2013-04-13 12:14:00,50.4,16.8,29.26,West,269,5.8,8.1,26,0.00,,---,0.08,VWS V13.01,2013-04-13 16:14:00,
2013-04-13 12:19:00,50.9,17.2,29.26,SSW,192,4.0,8.7,26,0.00,,---,0.08,VWS V13.01,2013-04-13 16:19:00,
2013-04-13 12:29:00,51.8,18.0,29.26,South,180,4.9,10.1,26,0.00,,---,0.08,VWS V13.01,2013-04-13 16:29:00,
2013-04-13 12:34:00,52.9,19.0,29.26,SSE,148,5.4,6.3,26,0.00,,---,0.08,VWS V13.01,2013-04-13 16:34:00,
2013-04-13 12:39:00,53.4,19.4,29.26,SW,230,3.1,8.7,26,0.00,,---,0.08,VWS V13.01,2013-04-13 16:39:00,
2013-04-13 12:44:00,54.1,19.1,29.26,South,173,6.3,6.7,25,0.00,,---,0.08,VWS V13.01,2013-04-13 16:44:00,
2013-04-13 12:54:00,52.5,15.8,29.26,West,269,5.4,15.0,23,0.00,,---,0.08,VWS V13.01,2013-04-13 16:54:00,
2013-04-13 12:59:00,52.7,16.0,29.26,South,177,4.0,10.5,23,0.00,,---,0.08,VWS V13.01,2013-04-13 16:59:00,
2013-04-13 13:09:00,53.6,16.7,29.26,SSW,194,6.7,10.5,23,0.00,,---,0.08,VWS V13.01,2013-04-13 17:09:00,
2013-04-13 13:24:00,53.4,16.6,29.26,South,184,5.8,7.6,23,0.00,,---,0.08,VWS V13.01,2013-04-13 17:24:00,
2013-04-13 13:29:00,54.1,17.2,29.26,West,280,3.1,12.3,23,0.00,,---,0.08,VWS V13.01,2013-04-13 17:29:00,
2013-04-13 13:39:00,55.0,17.9,29.26,WSW,249,7.2,8.1,23,0.00,,---,0.08,VWS V13.01,2013-04-13 17:39:00,
2013-04-13 13:49:00,55.9,15.5,29.26,WNW,297,3.1,8.3,20,0.00,,---,0.08,VWS V13.01,2013-04-13 17:49:00,
2013-04-13 13:54:00,54.9,14.6,29.26,SSW,193,2.7,8.3,20,0.00,,---,0.08,VWS V13.01,2013-04-13 17:54:00,
2013-04-13 13:59:00,55.4,15.0,29.26,West,269,0.0,11.9,20,0.00,,---,0.08,VWS V13.01,2013-04-13 17:59:00,
2013-04-13 14:04:00,56.3,15.8,29.26,SSE,151,3.1,6.3,20,0.00,,---,0.08,VWS V13.01,2013-04-13 18:04:00,
2013-04-13 14:09:00,56.5,15.9,29.26,SSW,206,4.9,12.8,20,0.00,,---,0.08,VWS V13.01,2013-04-13 18:09:00,
2013-04-13 14:14:00,56.7,16.1,29.26,South,186,6.3,12.3,20,0.00,,---,0.08,VWS V13.01,2013-04-13 18:14:00,
2013-04-13 14:19:00,56.7,16.1,29.26,South,181,5.4,8.7,20,0.00,,---,0.08,VWS V13.01,2013-04-13 18:19:00,
2013-04-13 14:24:00,57.0,16.4,29.26,SSW,194,2.7,8.7,20,0.00,,---,0.08,VWS V13.01,2013-04-13 18:24:00,
2013-04-13 14:29:00,57.2,15.3,29.26,West,264,5.8,8.7,19,0.00,,---,0.08,VWS V13.01,2013-04-13 18:29:00,
2013-04-13 14:39:00,56.3,15.8,29.26,South,181,4.0,10.1,20,0.00,,---,0.08,VWS V13.01,2013-04-13 18:39:00,
2013-04-13 14:44:00,57.2,15.3,29.26,South,178,3.1,6.3,19,0.00,,---,0.08,VWS V13.01,2013-04-13 18:44:00,
2013-04-13 14:49:00,57.2,15.3,29.26,SE,133,5.8,8.1,19,0.00,,---,0.08,VWS V13.01,2013-04-13 18:49:00,
2013-04-13 14:54:00,56.3,15.8,29.26,West,273,2.7,5.8,20,0.00,,---,0.08,VWS V13.01,2013-04-13 18:54:00,
2013-04-13 14:59:00,56.3,15.8,29.26,SSE,154,0.0,6.3,20,0.00,,---,0.08,VWS V13.01,2013-04-13 18:59:00,
2013-04-13 15:04:00,55.2,14.9,29.23,NW,314,5.4,6.3,20,0.00,,---,0.08,VWS V13.01,2013-04-13 19:04:00,
2013-04-13 15:09:00,54.7,14.4,29.23,WSW,243,7.6,7.6,20,0.00,,---,0.08,VWS V13.01,2013-04-13 19:09:00,
2013-04-13 15:14:00,55.9,15.5,29.23,SSW,200,8.7,10.1,20,0.00,,---,0.08,VWS V13.01,2013-04-13 19:14:00,
2013-04-13 15:19:00,56.8,16.2,29.23,SSE,158,2.7,8.7,20,0.00,,---,0.08,VWS V13.01,2013-04-13 19:19:00,
2013-04-13 15:24:00,57.4,15.5,29.23,SW,216,3.1,7.6,19,0.00,,---,0.08,VWS V13.01,2013-04-13 19:24:00,
2013-04-13 15:29:00,57.4,15.5,29.23,ENE,62,2.7,5.8,19,0.00,,---,0.08,VWS V13.01,2013-04-13 19:29:00,
2013-04-13 15:34:00,57.6,15.6,29.26,South,175,3.1,4.0,19,0.00,,---,0.08,VWS V13.01,2013-04-13 19:34:00,
2013-04-13 15:39:00,58.8,16.7,29.26,South,176,5.8,13.2,19,0.00,,---,0.08,VWS V13.01,2013-04-13 19:39:00,
2013-04-13 15:44:00,59.4,17.1,29.26,SW,234,4.0,6.3,19,0.00,,---,0.08,VWS V13.01,2013-04-13 19:44:00,
2013-04-13 15:49:00,59.0,16.8,29.26,ESE,115,4.0,8.1,19,0.00,,---,0.08,VWS V13.01,2013-04-13 19:49:00,
2013-04-13 15:54:00,58.1,16.1,29.26,SE,131,6.3,7.6,19,0.00,,---,0.08,VWS V13.01,2013-04-13 19:54:00,
2013-04-13 15:59:00,57.4,15.5,29.26,SE,131,5.4,8.3,19,0.00,,---,0.08,VWS V13.01,2013-04-13 19:59:00,
2013-04-13 16:04:00,56.8,16.2,29.26,SSE,158,4.9,10.1,20,0.00,,---,0.08,VWS V13.01,2013-04-13 20:04:00,
2013-04-13 16:09:00,56.7,16.1,29.26,South,180,2.2,5.8,20,0.00,,---,0.08,VWS V13.01,2013-04-13 20:09:00,
2013-04-13 16:14:00,57.0,16.4,29.26,SE,142,0.0,4.0,20,0.00,,---,0.08,VWS V13.01,2013-04-13 20:14:00,
2013-04-13 16:19:00,56.8,16.2,29.26,SE,128,2.7,7.6,20,0.00,,---,0.08,VWS V13.01,2013-04-13 20:19:00,
2013-04-13 16:24:00,56.8,16.2,29.26,South,171,4.9,8.1,20,0.00,,---,0.08,VWS V13.01,2013-04-13 20:24:00,
2013-04-13 16:29:00,56.7,16.1,29.26,SSW,197,8.1,8.3,20,0.00,,---,0.08,VWS V13.01,2013-04-13 20:29:00,
2013-04-13 16:34:00,56.3,15.8,29.26,SSW,204,4.0,8.3,20,0.00,,---,0.08,VWS V13.01,2013-04-13 20:34:00,
2013-04-13 16:39:00,56.3,15.8,29.26,ESE,116,3.1,7.6,20,0.00,,---,0.08,VWS V13.01,2013-04-13 20:39:00,
2013-04-13 16:44:00,56.1,15.6,29.26,SE,137,3.1,6.3,20,0.00,,---,0.08,VWS V13.01,2013-04-13 20:44:00,
2013-04-13 16:49:00,55.8,15.3,29.26,SE,136,8.1,8.1,20,0.00,,---,0.08,VWS V13.01,2013-04-13 20:49:00,
2013-04-13 16:59:00,54.1,17.2,29.26,NE,49,8.3,8.7,23,0.00,,---,0.08,VWS V13.01,2013-04-13 20:59:00,
2013-04-13 17:04:00,54.0,17.0,29.26,NE,35,5.4,8.7,23,0.00,,---,0.08,VWS V13.01,2013-04-13 21:04:00,
2013-04-13 17:09:00,54.0,17.0,29.26,NE,54,5.4,8.3,23,0.00,,---,0.08,VWS V13.01,2013-04-13 21:09:00,
2013-04-13 17:14:00,53.6,16.7,29.26,East,98,0.0,8.1,23,0.00,,---,0.08,VWS V13.01,2013-04-13 21:14:00,
2013-04-13 17:19:00,53.4,19.4,29.26,NE,52,5.8,5.8,26,0.00,,---,0.08,VWS V13.01,2013-04-13 21:19:00,
2013-04-13 17:24:00,53.2,16.4,29.26,NE,41,5.8,8.1,23,0.00,,---,0.08,VWS V13.01,2013-04-13 21:24:00,
2013-04-13 17:29:00,53.1,19.1,29.26,NE,43,2.2,7.2,26,0.00,,---,0.08,VWS V13.01,2013-04-13 21:29:00,
2013-04-13 17:34:00,53.1,19.1,29.26,NE,54,2.7,5.4,26,0.00,,---,0.08,VWS V13.01,2013-04-13 21:34:00,
2013-04-13 17:44:00,53.2,16.4,29.26,NNE,18,3.6,6.3,23,0.00,,---,0.08,VWS V13.01,2013-04-13 21:44:00,
2013-04-13 17:49:00,53.1,19.1,29.26,East,83,2.7,8.3,26,0.00,,---,0.08,VWS V13.01,2013-04-13 21:49:00,
2013-04-13 17:54:00,52.9,19.0,29.26,NE,50,3.1,6.3,26,0.00,,---,0.08,VWS V13.01,2013-04-13 21:54:00,
2013-04-13 17:59:00,52.9,19.0,29.26,East,82,5.4,6.3,26,0.00,,---,0.08,VWS V13.01,2013-04-13 21:59:00,
2013-04-13 18:04:00,53.1,19.1,29.26,NE,34,2.7,6.3,26,0.00,,---,0.08,VWS V13.01,2013-04-13 22:04:00,
2013-04-13 18:09:00,53.1,19.1,29.26,East,83,3.6,6.3,26,0.00,,---,0.08,VWS V13.01,2013-04-13 22:09:00,
2013-04-13 18:14:00,53.1,19.1,29.26,NE,35,5.8,6.3,26,0.00,,---,0.08,VWS V13.01,2013-04-13 22:14:00,
2013-04-13 18:19:00,53.1,19.1,29.26,ENE,61,5.4,8.3,26,0.00,,---,0.08,VWS V13.01,2013-04-13 22:19:00,
2013-04-13 18:24:00,52.9,19.0,29.26,North,9,5.4,7.6,26,0.00,,---,0.08,VWS V13.01,2013-04-13 22:24:00,
2013-04-13 18:29:00,53.1,19.1,29.26,NE,41,4.9,6.3,26,0.00,,---,0.08,VWS V13.01,2013-04-13 22:29:00,
2013-04-13 18:34:00,52.5,18.6,29.26,NNE,30,5.8,8.7,26,0.00,,---,0.08,VWS V13.01,2013-04-13 22:34:00,
2013-04-13 18:39:00,52.2,15.5,29.26,NE,36,5.4,8.3,23,0.00,,---,0.08,VWS V13.01,2013-04-13 22:39:00,
2013-04-13 18:44:00,52.2,15.5,29.26,NE,47,2.2,6.3,23,0.00,,---,0.08,VWS V13.01,2013-04-13 22:44:00,
2013-04-13 18:49:00,52.3,18.5,29.26,NE,46,2.2,4.9,26,0.00,,---,0.08,VWS V13.01,2013-04-13 22:49:00,
2013-04-13 18:54:00,52.3,15.7,29.26,ESE,103,2.7,4.9,23,0.00,,---,0.08,VWS V13.01,2013-04-13 22:54:00,
2013-04-13 18:59:00,52.3,18.5,29.26,East,94,2.7,5.8,26,0.00,,---,0.08,VWS V13.01,2013-04-13 22:59:00,
2013-04-13 19:04:00,52.5,15.8,29.29,ESE,122,2.2,4.0,23,0.00,,---,0.08,VWS V13.01,2013-04-13 23:04:00,
2013-04-13 19:09:00,52.7,16.0,29.29,ESE,104,0.0,3.6,23,0.00,,---,0.08,VWS V13.01,2013-04-13 23:09:00,
2013-04-13 19:14:00,52.7,16.0,29.29,ESE,104,3.6,3.6,23,0.00,,---,0.08,VWS V13.01,2013-04-13 23:14:00,
2013-04-13 19:19:00,52.9,16.1,29.29,East,86,4.0,5.4,23,0.00,,---,0.08,VWS V13.01,2013-04-13 23:19:00,
2013-04-13 19:24:00,52.9,16.1,29.29,East,86,0.0,4.0,23,0.00,,---,0.08,VWS V13.01,2013-04-13 23:24:00,
2013-04-13 19:29:00,52.9,16.1,29.29,ENE,59,3.1,4.0,23,0.00,,---,0.08,VWS V13.01,2013-04-13 23:29:00,
2013-04-13 19:34:00,52.7,18.8,29.29,ENE,62,3.6,4.0,26,0.00,,---,0.08,VWS V13.01,2013-04-13 23:34:00,
2013-04-13 19:39:00,52.5,18.6,29.29,ENE,63,0.0,3.6,26,0.00,,---,0.08,VWS V13.01,2013-04-13 23:39:00,
2013-04-13 19:44:00,52.5,18.6,29.29,ENE,71,0.0,3.6,26,0.00,,---,0.08,VWS V13.01,2013-04-13 23:44:00,
2013-04-13 19:49:00,52.5,18.6,29.29,ENE,67,0.0,3.1,26,0.00,,---,0.08,VWS V13.01,2013-04-13 23:49:00,
2013-04-13 19:54:00,52.2,18.3,29.29,ENE,61,0.0,3.6,26,0.00,,---,0.08,VWS V13.01,2013-04-13 23:54:00,
2013-04-13 19:59:00,52.0,18.2,29.29,ENE,68,0.0,4.0,26,0.00,,---,0.08,VWS V13.01,2013-04-13 23:59:00,
2013-04-13 20:04:00,51.8,18.0,29.29,ENE,70,2.7,4.0,26,0.00,,---,0.08,VWS V13.01,2013-04-14 00:04:00,
2013-04-13 20:09:00,51.8,18.0,29.29,East,79,3.6,4.9,26,0.00,,---,0.08,VWS V13.01,2013-04-14 00:09:00,
2013-04-13 20:14:00,51.6,17.9,29.29,ENE,67,2.7,5.4,26,0.00,,---,0.08,VWS V13.01,2013-04-14 00:14:00,
2013-04-13 20:19:00,51.6,17.9,29.29,ESE,102,3.6,5.8,26,0.00,,---,0.08,VWS V13.01,2013-04-14 00:19:00,
2013-04-13 20:29:00,51.4,18.6,29.29,East,81,2.2,6.3,27,0.00,,---,0.08,VWS V13.01,2013-04-14 00:29:00,
2013-04-13 20:34:00,50.9,18.1,29.32,East,96,3.6,7.6,27,0.00,,---,0.08,VWS V13.01,2013-04-14 00:34:00,
2013-04-13 20:39:00,50.7,18.0,29.32,East,86,3.6,5.8,27,0.00,,---,0.08,VWS V13.01,2013-04-14 00:39:00,
2013-04-13 20:44:00,50.5,17.8,29.32,East,95,0.0,5.4,27,0.00,,---,0.08,VWS V13.01,2013-04-14 00:44:00,
2013-04-13 20:54:00,50.2,19.2,29.32,East,94,4.0,4.9,29,0.00,,---,0.08,VWS V13.01,2013-04-14 00:54:00,
2013-04-13 20:59:00,49.8,18.9,29.32,East,94,0.0,4.0,29,0.00,,---,0.08,VWS V13.01,2013-04-14 00:59:00,
2013-04-13 21:04:00,49.5,19.3,29.29,East,94,2.2,3.6,30,0.00,,---,0.08,VWS V13.01,2013-04-14 01:04:00,
2013-04-13 21:09:00,49.1,19.8,29.29,East,93,4.9,4.9,31,0.00,,---,0.08,VWS V13.01,2013-04-14 01:09:00,
2013-04-13 21:19:00,48.7,20.2,29.32,ESE,104,0.0,3.6,32,0.00,,---,0.08,VWS V13.01,2013-04-14 01:19:00,
2013-04-13 21:24:00,48.4,20.6,29.32,ESE,104,3.6,5.4,33,0.00,,---,0.08,VWS V13.01,2013-04-14 01:24:00,
2013-04-13 21:29:00,48.4,21.3,29.32,East,93,2.7,4.0,34,0.00,,---,0.08,VWS V13.01,2013-04-14 01:29:00,
2013-04-13 21:34:00,48.0,21.7,29.32,SE,135,2.7,4.0,35,0.00,,---,0.08,VWS V13.01,2013-04-14 01:34:00,
2013-04-13 21:39:00,47.7,22.0,29.32,ESE,114,2.2,4.0,36,0.00,,---,0.08,VWS V13.01,2013-04-14 01:39:00,
2013-04-13 21:44:00,47.3,22.4,29.32,ESE,114,0.0,4.0,37,0.00,,---,0.08,VWS V13.01,2013-04-14 01:44:00,
2013-04-13 21:49:00,47.1,22.2,29.35,ESE,114,0.0,0.0,37,0.00,,---,0.08,VWS V13.01,2013-04-14 01:49:00,
2013-04-13 21:54:00,46.8,22.5,29.35,ESE,114,0.0,0.0,38,0.00,,---,0.08,VWS V13.01,2013-04-14 01:54:00,
2013-04-13 21:59:00,46.6,22.4,29.35,ESE,114,0.0,0.0,38,0.00,,---,0.08,VWS V13.01,2013-04-14 01:59:00,
2013-04-13 22:04:00,46.4,22.2,29.35,ESE,114,0.0,0.0,38,0.00,,---,0.08,VWS V13.01,2013-04-14 02:04:00,
2013-04-13 22:09:00,46.2,22.6,29.35,ESE,114,0.0,0.0,39,0.00,,---,0.08,VWS V13.01,2013-04-14 02:09:00,
2013-04-13 22:19:00,45.3,22.4,29.32,ESE,114,0.0,3.1,40,0.00,,---,0.08,VWS V13.01,2013-04-14 02:19:00,
2013-04-13 22:24:00,45.1,22.3,29.32,ESE,113,0.0,0.0,40,0.00,,---,0.08,VWS V13.01,2013-04-14 02:24:00,
2013-04-13 22:29:00,45.1,22.3,29.32,ESE,114,0.0,0.0,40,0.00,,---,0.08,VWS V13.01,2013-04-14 02:29:00,
2013-04-13 22:34:00,45.1,22.3,29.32,ESE,114,0.0,0.0,40,0.00,,---,0.08,VWS V13.01,2013-04-14 02:34:00,
2013-04-13 22:39:00,45.1,22.3,29.32,ESE,114,0.0,0.0,40,0.00,,---,0.08,VWS V13.01,2013-04-14 02:39:00,
2013-04-13 22:44:00,44.6,21.8,29.32,ESE,114,0.0,0.0,40,0.00,,---,0.08,VWS V13.01,2013-04-14 02:44:00,
2013-04-13 22:54:00,44.6,22.4,29.35,ESE,114,0.0,0.0,41,0.00,,---,0.08,VWS V13.01,2013-04-14 02:54:00,
2013-04-13 22:59:00,44.8,22.5,29.35,ESE,114,0.0,0.0,41,0.00,,---,0.08,VWS V13.01,2013-04-14 02:59:00,
2013-04-13 23:04:00,44.8,22.5,29.32,ESE,113,0.0,0.0,41,0.00,,---,0.08,VWS V13.01,2013-04-14 03:04:00,
2013-04-13 23:09:00,44.8,22.5,29.32,ESE,113,0.0,0.0,41,0.00,,---,0.08,VWS V13.01,2013-04-14 03:09:00,
2013-04-13 23:14:00,44.6,22.4,29.32,ESE,114,0.0,0.0,41,0.00,,---,0.08,VWS V13.01,2013-04-14 03:14:00,
2013-04-13 23:19:00,44.6,22.4,29.32,ESE,113,0.0,0.0,41,0.00,,---,0.08,VWS V13.01,2013-04-14 03:19:00,
2013-04-13 23:24:00,44.4,22.8,29.32,ESE,114,0.0,0.0,42,0.00,,---,0.08,VWS V13.01,2013-04-14 03:24:00,
2013-04-13 23:34:00,44.2,22.6,29.32,ESE,113,0.0,0.0,42,0.00,,---,0.08,VWS V13.01,2013-04-14 03:34:00,
2013-04-13 23:39:00,44.4,22.8,29.32,ESE,114,0.0,0.0,42,0.00,,---,0.08,VWS V13.01,2013-04-14 03:39:00,
2013-04-13 23:44:00,44.4,22.8,29.32,ESE,114,0.0,0.0,42,0.00,,---,0.08,VWS V13.01,2013-04-14 03:44:00,
2013-04-13 23:49:00,44.6,22.9,29.35,ESE,113,0.0,0.0,42,0.00,,---,0.08,VWS V13.01,2013-04-14 03:49:00,
2013-04-13 23:54:00,44.2,24.3,29.35,ESE,114,0.0,0.0,45,0.00,,---,0.08,VWS V13.01,2013-04-14 03:54:00,
2013-04-13 23:59:00,44.1,24.6,29.35,ESE,114,0.0,0.0,46,0.00,,---,0.00,VWS V13.01,2013-04-14 03:59:00,